createdAt,value
2019-02-23T00:00:01.618Z,100948.17
2019-02-23T00:02:29.883Z,100943.94
2019-02-23T00:04:58.153Z,100947.54
2019-02-23T00:07:26.516Z,100939.46
2019-02-23T00:09:54.777Z,100942.37
2019-02-23T00:12:23.096Z,100936.72
2019-02-23T00:14:51.362Z,100933.28
2019-02-23T00:17:19.644Z,100931.66
2019-02-23T00:19:47.907Z,100939.28
2019-02-23T00:22:16.203Z,100940.81
2019-02-23T00:24:44.497Z,100926.55
2019-02-23T00:27:12.760Z,100929.80
2019-02-23T00:29:41.058Z,100938.77
2019-02-23T00:32:09.361Z,100945.02
2019-02-23T00:34:37.625Z,100946.19
2019-02-23T00:37:05.884Z,100952.09
2019-02-23T00:39:34.162Z,100951.17
2019-02-23T00:42:02.425Z,100945.70
2019-02-23T00:44:30.708Z,100945.42
2019-02-23T00:47:00.007Z,100942.77
2019-02-23T00:49:35.879Z,100949.77
2019-02-23T00:54:46.786Z,100952.37
2019-02-23T00:57:15.050Z,100950.20
2019-02-23T00:59:43.308Z,100960.36
2019-02-23T01:02:12.117Z,100956.78
2019-02-23T01:04:40.545Z,100944.40
2019-02-23T01:07:08.837Z,100944.61
2019-02-23T01:09:37.102Z,100951.52
2019-02-23T01:12:05.394Z,100962.86
2019-02-23T01:14:33.655Z,100956.20
2019-02-23T01:17:01.939Z,100950.92
2019-02-23T01:19:30.236Z,100954.20
2019-02-23T01:21:58.500Z,100951.11
2019-02-23T01:24:26.790Z,100953.66
2019-02-23T01:26:55.049Z,100956.97
2019-02-23T01:29:23.345Z,100964.30
2019-02-23T01:31:51.603Z,100956.41
2019-02-23T01:34:19.880Z,100962.72
2019-02-23T01:36:48.139Z,100970.09
2019-02-23T01:39:16.441Z,100963.83
2019-02-23T01:41:44.723Z,100964.27
2019-02-23T01:44:12.983Z,100971.56
2019-02-23T01:46:41.259Z,100970.60
2019-02-23T01:49:09.532Z,100975.16
2019-02-23T01:51:37.803Z,100977.72
2019-02-23T01:54:06.068Z,100973.03
2019-02-23T01:56:34.355Z,100972.60
2019-02-23T01:59:02.611Z,100975.55
2019-02-23T02:01:30.909Z,100987.67
2019-02-23T02:03:59.171Z,100992.04
2019-02-23T02:06:27.465Z,100997.14
2019-02-23T02:08:55.756Z,100997.50
2019-02-23T02:11:24.421Z,100999.13
2019-02-23T02:13:52.750Z,101001.50
2019-02-23T02:16:21.030Z,101000.31
2019-02-23T02:18:49.285Z,100994.76
2019-02-23T02:21:19.005Z,100995.03
2019-02-23T02:23:47.301Z,100995.81
2019-02-23T02:26:15.672Z,101002.17
2019-02-23T02:28:43.937Z,101004.36
2019-02-23T02:31:12.239Z,101002.31
2019-02-23T02:34:02.109Z,100990.81
2019-02-23T02:36:30.384Z,100996.16
2019-02-23T02:38:58.684Z,100988.83
2019-02-23T02:41:26.954Z,100983.34
2019-02-23T02:43:55.229Z,100972.39
2019-02-23T02:46:23.487Z,100983.20
2019-02-23T02:48:51.761Z,100981.40
2019-02-23T02:51:20.026Z,100975.84
2019-02-23T02:53:48.350Z,100969.08
2019-02-23T02:56:16.613Z,100967.16
2019-02-23T02:58:44.941Z,100969.55
2019-02-23T03:01:13.224Z,100975.31
2019-02-23T03:03:41.524Z,100981.08
2019-02-23T03:06:09.827Z,100972.89
2019-02-23T03:08:38.090Z,100977.59
2019-02-23T03:11:06.382Z,100980.53
2019-02-23T03:13:34.679Z,100981.38
2019-02-23T03:16:02.940Z,100984.89
2019-02-23T03:18:31.246Z,100985.22
2019-02-23T03:20:59.523Z,100994.58
2019-02-23T03:23:27.781Z,100998.27
2019-02-23T03:25:56.082Z,100998.73
2019-02-23T03:28:24.364Z,100988.59
2019-02-23T03:30:52.633Z,100990.36
2019-02-23T03:33:20.943Z,100992.17
2019-02-23T03:35:49.273Z,100979.00
2019-02-23T03:38:17.534Z,100977.62
2019-02-23T03:40:45.804Z,100973.42
2019-02-23T03:43:14.069Z,100972.02
2019-02-23T03:45:42.362Z,100969.23
2019-02-23T03:48:10.624Z,100966.63
2019-02-23T03:50:48.717Z,100958.38
2019-02-23T03:53:08.944Z,100961.57
2019-02-23T03:55:37.218Z,100965.46
2019-02-23T03:58:05.510Z,100969.41
2019-02-23T04:00:33.772Z,100968.20
2019-02-23T04:03:02.047Z,100967.29
2019-02-23T04:05:30.344Z,100970.00
2019-02-23T04:07:58.603Z,100973.36
2019-02-23T04:10:26.908Z,100968.36
2019-02-23T04:12:55.207Z,100973.80
2019-02-23T04:15:23.483Z,100979.73
2019-02-23T04:17:51.771Z,100977.89
2019-02-23T04:20:20.067Z,100983.78
2019-02-23T04:22:48.344Z,100979.53
2019-02-23T04:25:16.623Z,100992.34
2019-02-23T04:27:45.284Z,100988.68
2019-02-23T04:30:13.544Z,100984.34
2019-02-23T04:32:41.837Z,100986.42
2019-02-23T04:35:10.105Z,100990.55
2019-02-23T04:37:38.411Z,100979.78
2019-02-23T04:40:07.344Z,100980.82
2019-02-23T04:42:35.604Z,100981.19
2019-02-23T04:45:04.541Z,100978.58
2019-02-23T04:47:32.796Z,100985.58
2019-02-23T04:50:01.091Z,100992.25
2019-02-23T04:52:29.350Z,100974.16
2019-02-23T04:54:57.659Z,100977.68
2019-02-23T04:57:25.907Z,100977.00
2019-02-23T04:59:54.198Z,100980.50
2019-02-23T05:02:22.524Z,100991.55
2019-02-23T05:04:50.802Z,100988.32
2019-02-23T05:07:19.053Z,100990.66
2019-02-23T05:09:47.323Z,100987.48
2019-02-23T05:12:15.628Z,100988.06
2019-02-23T05:14:43.894Z,100998.38
2019-02-23T05:17:12.197Z,100998.69
2019-02-23T05:19:40.462Z,101003.56
2019-02-23T05:22:08.729Z,100994.80
2019-02-23T05:24:37.037Z,101002.84
2019-02-23T05:27:05.333Z,101002.87
2019-02-23T05:29:33.598Z,100997.73
2019-02-23T05:32:01.896Z,100996.82
2019-02-23T05:34:30.175Z,100996.40
2019-02-23T05:36:58.434Z,100990.18
2019-02-23T05:39:26.710Z,100996.91
2019-02-23T05:41:54.984Z,101000.09
2019-02-23T05:44:23.245Z,101009.51
2019-02-23T05:46:51.543Z,101001.58
2019-02-23T05:49:19.837Z,101007.25
2019-02-23T05:51:48.105Z,101005.86
2019-02-23T05:54:16.389Z,101010.97
2019-02-23T05:56:44.662Z,101011.98
2019-02-23T05:59:12.938Z,101013.59
2019-02-23T06:01:41.247Z,101015.09
2019-02-23T06:04:09.521Z,101026.65
2019-02-23T06:06:37.819Z,101026.58
2019-02-23T06:09:06.115Z,101025.03
2019-02-23T06:11:36.643Z,101031.84
2019-02-23T06:14:04.919Z,101032.98
2019-02-23T06:16:33.205Z,101035.35
2019-02-23T06:19:01.469Z,101025.48
2019-02-23T06:21:30.279Z,101031.95
2019-02-23T06:23:58.736Z,101023.45
2019-02-23T06:26:27.342Z,101021.88
2019-02-23T06:28:55.625Z,101022.27
2019-02-23T06:31:23.977Z,101031.34
2019-02-23T06:33:52.263Z,101035.66
2019-02-23T06:36:20.530Z,101033.70
2019-02-23T06:38:48.830Z,101041.99
2019-02-23T06:41:17.093Z,101038.69
2019-02-23T06:43:45.370Z,101034.55
2019-02-23T06:46:13.663Z,101047.31
2019-02-23T06:48:41.926Z,101042.18
2019-02-23T06:51:10.223Z,101053.39
2019-02-23T06:53:38.486Z,101053.62
2019-02-23T06:56:06.769Z,101063.11
2019-02-23T06:58:35.033Z,101078.45
2019-02-23T07:01:03.311Z,101076.64
2019-02-23T07:03:31.611Z,101092.30
2019-02-23T07:05:59.874Z,101093.88
2019-02-23T07:08:28.152Z,101090.23
2019-02-23T07:10:56.433Z,101094.33
2019-02-23T07:13:24.708Z,101099.93
2019-02-23T07:15:53.573Z,101107.02
2019-02-23T07:18:21.838Z,101116.13
2019-02-23T07:20:50.132Z,101111.17
2019-02-23T07:23:18.440Z,101107.45
2019-02-23T07:25:46.711Z,101105.39
2019-02-23T07:28:15.040Z,101106.38
2019-02-23T07:30:43.331Z,101107.89
2019-02-23T07:33:11.653Z,101110.23
2019-02-23T07:35:39.940Z,101109.05
2019-02-23T07:38:08.204Z,101115.13
2019-02-23T07:40:36.509Z,101110.02
2019-02-23T07:43:04.771Z,101121.98
2019-02-23T07:45:33.039Z,101119.00
2019-02-23T07:48:01.333Z,101125.67
2019-02-23T07:50:29.602Z,101129.21
2019-02-23T07:52:57.883Z,101133.59
2019-02-23T07:55:26.145Z,101139.34
2019-02-23T07:57:54.440Z,101133.34
2019-02-23T08:00:22.701Z,101133.34
2019-02-23T08:02:50.992Z,101143.52
2019-02-23T08:05:19.273Z,101144.17
2019-02-23T08:07:47.567Z,101141.11
2019-02-23T08:10:15.829Z,101142.17
2019-02-23T08:12:44.112Z,101160.81
2019-02-23T08:15:12.671Z,101149.08
2019-02-23T08:17:40.952Z,101145.90
2019-02-23T08:20:11.158Z,101137.62
2019-02-23T08:22:39.452Z,101143.33
2019-02-23T08:25:10.075Z,101136.59
2019-02-23T08:27:38.339Z,101143.48
2019-02-23T08:30:10.280Z,101150.31
2019-02-23T08:32:38.545Z,101140.86
2019-02-23T08:35:07.745Z,101132.11
2019-02-23T08:37:36.057Z,101145.05
2019-02-23T08:40:07.300Z,101146.80
2019-02-23T08:42:35.601Z,101150.25
2019-02-23T08:45:03.869Z,101161.54
2019-02-23T08:47:32.158Z,101167.42
2019-02-23T08:50:00.422Z,101165.36
2019-02-23T08:52:28.717Z,101169.11
2019-02-23T08:54:56.992Z,101184.67
2019-02-23T08:57:25.297Z,101179.87
2019-02-23T08:59:53.562Z,101191.56
2019-02-23T09:02:21.824Z,101207.00
2019-02-23T09:04:50.098Z,101206.18
2019-02-23T09:07:18.390Z,101196.15
2019-02-23T09:09:46.680Z,101195.80
2019-02-23T09:12:14.944Z,101198.17
2019-02-23T09:20:28.600Z,101156.68
2019-02-23T09:22:59.698Z,101146.34
2019-02-23T09:25:20.191Z,101137.22
2019-02-23T09:27:48.455Z,101136.98
2019-02-23T09:30:16.732Z,101147.81
2019-02-23T09:32:44.990Z,101160.17
2019-02-23T09:35:13.267Z,101166.19
2019-02-23T09:37:43.119Z,101172.61
2019-02-23T09:40:16.618Z,101172.17
2019-02-23T09:42:44.885Z,101150.92
2019-02-23T09:45:13.185Z,101133.98
2019-02-23T09:47:41.444Z,101139.86
2019-02-23T09:50:09.714Z,101132.36
2019-02-23T09:52:37.976Z,101137.84
2019-02-23T09:55:07.209Z,101147.83
2019-02-23T09:57:35.468Z,101147.38
2019-02-23T10:00:04.312Z,101157.26
2019-02-23T10:02:32.581Z,101145.83
2019-02-23T10:05:00.880Z,101126.84
2019-02-23T10:07:29.151Z,101105.97
2019-02-23T10:09:57.409Z,101107.92
2019-02-23T10:12:25.694Z,101120.27
2019-02-23T10:14:53.958Z,101130.01
2019-02-23T10:17:22.249Z,101142.52
2019-02-23T10:19:50.532Z,101148.97
2019-02-23T10:22:18.837Z,101150.20
2019-02-23T10:24:47.102Z,101135.88
2019-02-23T10:27:15.398Z,101131.78
2019-02-23T10:29:43.655Z,101124.65
2019-02-23T10:32:11.958Z,101116.81
2019-02-23T10:34:40.206Z,101100.48
2019-02-23T10:37:08.495Z,101103.41
2019-02-23T10:39:36.784Z,101102.17
2019-02-23T10:42:05.043Z,101102.05
2019-02-23T10:44:33.324Z,101107.77
2019-02-23T10:47:01.591Z,101110.84
2019-02-23T10:49:29.880Z,101118.75
2019-02-23T10:51:58.137Z,101127.37
2019-02-23T10:54:26.420Z,101128.08
2019-02-23T10:56:54.708Z,101134.66
2019-02-23T10:59:22.969Z,101126.58
2019-02-23T11:01:51.262Z,101123.06
2019-02-23T11:04:19.522Z,101107.87
2019-02-23T11:06:47.824Z,101105.13
2019-02-23T11:09:17.728Z,101099.80
2019-02-23T11:11:48.385Z,101098.02
2019-02-23T11:14:16.042Z,101100.33
2019-02-23T11:16:44.305Z,101099.94
2019-02-23T11:19:12.563Z,101094.16
2019-02-23T11:21:40.845Z,101084.59
2019-02-23T11:24:09.104Z,101071.97
2019-02-23T11:26:37.396Z,101068.77
2019-02-23T11:29:05.657Z,101059.94
2019-02-23T11:31:33.954Z,101047.41
2019-02-23T11:34:02.230Z,101045.94
2019-02-23T11:36:30.503Z,101035.23
2019-02-23T11:38:58.800Z,101038.60
2019-02-23T11:41:27.062Z,101024.70
2019-02-23T11:43:55.334Z,101023.17
2019-02-23T11:46:23.640Z,101008.21
2019-02-23T11:48:51.907Z,101007.93
2019-02-23T11:51:20.186Z,100996.64
2019-02-23T11:53:54.980Z,100994.49
2019-02-23T11:56:18.457Z,100994.03
2019-02-23T11:58:46.717Z,101003.34
2019-02-23T12:01:15.014Z,101006.73
2019-02-23T12:03:43.269Z,101005.60
2019-02-23T12:06:11.573Z,100985.59
2019-02-23T12:08:39.833Z,100983.44
2019-02-23T12:11:08.096Z,100973.67
2019-02-23T12:13:36.381Z,100983.50
2019-02-23T12:16:04.659Z,100972.06
2019-02-23T12:18:34.592Z,100966.84
2019-02-23T12:21:02.889Z,100964.78
2019-02-23T12:23:31.163Z,100971.45
2019-02-23T12:25:59.454Z,100965.47
2019-02-23T12:28:27.713Z,100961.66
2019-02-23T12:30:56.007Z,100948.72
2019-02-23T12:33:24.272Z,100951.94
2019-02-23T12:35:52.568Z,100948.19
2019-02-23T12:38:20.825Z,100962.09
2019-02-23T12:40:49.123Z,100966.27
2019-02-23T12:43:17.387Z,100958.84
2019-02-23T12:45:45.681Z,100954.25
2019-02-23T12:48:13.968Z,100945.13
2019-02-23T12:50:42.257Z,100935.63
2019-02-23T12:53:10.516Z,100956.69
2019-02-23T12:55:38.812Z,100957.15
2019-02-23T12:58:07.085Z,100957.83
2019-02-23T13:00:35.361Z,100963.89
2019-02-23T13:03:03.656Z,100972.16
2019-02-23T13:05:31.915Z,100959.70
2019-02-23T13:08:00.208Z,100975.79
2019-02-23T13:10:28.468Z,100968.78
2019-02-23T13:13:00.030Z,100958.11
2019-02-23T13:15:31.549Z,100959.58
2019-02-23T13:18:03.115Z,100954.63
2019-02-23T13:20:34.637Z,100970.72
2019-02-23T13:23:33.541Z,100953.45
2019-02-23T13:26:22.959Z,100946.07
2019-02-23T13:28:57.372Z,100970.30
2019-02-23T13:31:41.174Z,100971.59
2019-02-23T13:34:18.521Z,100965.45
2019-02-23T13:37:06.522Z,100965.20
2019-02-23T13:39:40.941Z,100966.31
2019-02-23T13:42:21.469Z,100955.93
2019-02-23T13:45:05.219Z,100948.95
2019-02-23T13:47:42.844Z,100937.66
2019-02-23T13:50:29.551Z,100933.09
2019-02-23T13:53:10.102Z,100946.38
2019-02-23T13:55:56.716Z,100944.28
2019-02-23T13:58:34.119Z,100948.59
2019-02-23T14:01:21.699Z,100948.14
2019-02-23T14:03:58.982Z,100941.94
2019-02-23T14:06:58.727Z,100944.78
2019-02-23T14:09:46.857Z,100939.94
2019-02-23T14:12:27.455Z,100937.38
2019-02-23T14:14:58.982Z,100944.80
2019-02-23T14:17:54.820Z,100936.98
2019-02-23T14:20:44.510Z,100931.95
2019-02-23T14:23:22.104Z,100934.47
2019-02-23T14:25:53.651Z,100952.03
2019-02-23T14:28:30.814Z,100956.98
2019-02-23T14:31:20.252Z,100938.95
2019-02-23T14:34:00.663Z,100941.78
2019-02-23T14:36:41.331Z,100942.98
2019-02-23T14:39:29.622Z,100940.61
2019-02-23T14:42:03.910Z,100934.33
2019-02-23T14:44:51.729Z,100939.29
2019-02-23T14:47:40.088Z,100930.86
2019-02-23T14:50:28.345Z,100942.02
2019-02-23T14:53:06.140Z,100934.08
2019-02-23T14:55:55.695Z,100931.00
2019-02-23T14:58:27.229Z,100926.75
2019-02-23T15:01:02.792Z,100927.43
2019-02-23T15:03:50.632Z,100921.72
2019-02-23T15:06:49.621Z,100911.58
2019-02-23T15:09:21.149Z,100909.58
2019-02-23T15:11:59.509Z,100908.42
2019-02-23T15:14:39.931Z,100908.95
2019-02-23T15:17:27.986Z,100912.03
2019-02-23T15:20:31.608Z,100909.59
2019-02-23T15:23:07.043Z,100910.15
2019-02-23T15:26:10.122Z,100903.41
2019-02-23T15:28:56.801Z,100905.80
2019-02-23T15:31:48.153Z,100908.93
2019-02-23T15:34:39.298Z,100902.53
2019-02-23T15:37:13.586Z,100918.66
2019-02-23T15:40:00.277Z,100921.94
2019-02-23T15:42:43.567Z,100925.37
2019-02-23T15:45:20.893Z,100928.11
2019-02-23T15:47:55.342Z,100930.11
2019-02-23T15:50:23.665Z,100932.75
2019-02-23T15:52:54.606Z,100929.23
2019-02-23T15:55:25.955Z,100924.25
2019-02-23T15:57:52.876Z,100920.83
2019-02-23T16:00:21.135Z,100916.09
2019-02-23T16:02:49.428Z,100909.77
2019-02-23T16:05:17.730Z,100918.14
2019-02-23T16:07:46.078Z,100906.53
2019-02-23T16:10:16.721Z,100902.60
2019-02-23T16:12:44.277Z,100899.64
2019-02-23T16:15:12.568Z,100893.56
2019-02-23T16:17:40.846Z,100883.97
2019-02-23T16:20:09.128Z,100875.27
2019-02-23T16:22:37.464Z,100885.27
2019-02-23T16:25:06.271Z,100897.19
2019-02-23T16:27:34.541Z,100884.06
2019-02-23T16:30:05.253Z,100888.36
2019-02-23T16:32:33.517Z,100899.25
2019-02-23T16:35:01.817Z,100891.58
2019-02-23T16:37:30.081Z,100892.07
2019-02-23T16:39:58.748Z,100898.90
2019-02-23T16:42:26.993Z,100902.97
2019-02-23T16:44:55.292Z,100909.55
2019-02-23T16:47:23.556Z,100902.41
2019-02-23T16:49:53.488Z,100889.94
2019-02-23T16:52:21.877Z,100908.45
2019-02-23T16:54:50.144Z,100904.14
2019-02-23T16:57:18.406Z,100904.41
2019-02-23T16:59:46.704Z,100910.23
2019-02-23T17:02:16.591Z,100887.23
2019-02-23T17:04:52.959Z,100886.46
2019-02-23T17:07:14.937Z,100890.22
2019-02-23T17:09:43.199Z,100890.98
2019-02-23T17:12:11.779Z,100884.26
2019-02-23T17:14:40.033Z,100883.05
2019-02-23T17:17:08.287Z,100887.69
2019-02-23T17:19:36.562Z,100892.89
2019-02-23T17:22:04.838Z,100893.88
2019-02-23T17:24:33.153Z,100905.51
2019-02-23T17:27:01.415Z,100909.66
2019-02-23T17:29:29.734Z,100896.86
2019-02-23T17:31:58.022Z,100902.05
2019-02-23T17:34:26.286Z,100905.98
2019-02-23T17:36:56.206Z,100890.25
2019-02-23T17:39:26.112Z,100880.13
2019-02-23T17:41:54.400Z,100875.75
2019-02-23T17:44:24.277Z,100864.94
2019-02-23T17:46:54.198Z,100868.79
2019-02-23T17:49:22.486Z,100866.97
2019-02-23T17:51:50.758Z,100864.63
2019-02-23T17:54:19.054Z,100858.35
2019-02-23T17:56:47.348Z,100862.11
2019-02-23T17:59:15.658Z,100864.55
2019-02-23T18:01:43.919Z,100855.45
2019-02-23T18:04:12.210Z,100852.97
2019-02-23T18:06:40.492Z,100855.25
2019-02-23T18:09:08.768Z,100852.27
2019-02-23T18:11:37.047Z,100858.27
2019-02-23T18:14:05.332Z,100863.64
2019-02-23T18:16:33.610Z,100860.99
2019-02-23T18:19:02.962Z,100857.84
2019-02-23T18:21:31.255Z,100854.01
2019-02-23T18:23:59.521Z,100857.89
2019-02-23T18:26:27.812Z,100855.78
2019-02-23T18:28:56.109Z,100856.17
2019-02-23T18:31:24.388Z,100860.48
2019-02-23T18:33:52.679Z,100864.19
2019-02-23T18:36:20.987Z,100857.75
2019-02-23T18:38:49.243Z,100853.20
2019-02-23T18:41:17.506Z,100845.90
2019-02-23T18:43:45.799Z,100836.44
2019-02-23T18:46:14.094Z,100836.03
2019-02-23T18:48:42.404Z,100830.30
2019-02-23T18:51:10.671Z,100822.12
2019-02-23T18:53:38.967Z,100816.27
2019-02-23T18:56:07.236Z,100810.33
2019-02-23T18:58:35.534Z,100804.80
2019-02-23T19:01:03.807Z,100799.37
2019-02-23T19:03:32.097Z,100803.05
2019-02-23T19:06:00.362Z,100806.05
2019-02-23T19:08:28.647Z,100814.91
2019-02-23T19:10:57.211Z,100819.41
2019-02-23T19:13:25.501Z,100820.61
2019-02-23T19:15:53.775Z,100818.86
2019-02-23T19:18:22.073Z,100820.88
2019-02-23T19:20:50.365Z,100837.80
2019-02-23T19:23:18.634Z,100842.95
2019-02-23T19:25:46.914Z,100843.66
2019-02-23T19:28:15.209Z,100842.44
2019-02-23T19:30:43.489Z,100832.44
2019-02-23T19:33:11.795Z,100830.58
2019-02-23T19:35:40.068Z,100829.98
2019-02-23T19:38:08.355Z,100826.59
2019-02-23T19:40:36.657Z,100824.17
2019-02-23T19:43:04.966Z,100815.69
2019-02-23T19:45:33.242Z,100807.63
2019-02-23T19:48:01.543Z,100821.17
2019-02-23T19:50:33.076Z,100819.04
2019-02-23T19:53:01.369Z,100808.02
2019-02-23T19:55:29.683Z,100797.69
2019-02-23T19:57:57.954Z,100778.01
2019-02-23T20:00:26.383Z,100780.83
2019-02-23T20:02:54.665Z,100787.23
2019-02-23T20:05:22.964Z,100788.63
2019-02-23T20:07:52.659Z,100779.44
2019-02-23T20:10:21.092Z,100793.47
2019-02-23T20:12:49.388Z,100799.12
2019-02-23T20:15:17.682Z,100803.17
2019-02-23T20:17:45.969Z,100796.77
2019-02-23T20:20:14.578Z,100803.71
2019-02-23T20:22:42.844Z,100800.78
2019-02-23T20:25:11.142Z,100799.37
2019-02-23T20:27:39.410Z,100805.16
2019-02-23T20:30:09.956Z,100817.09
2019-02-23T20:32:38.227Z,100817.70
2019-02-23T20:35:08.145Z,100815.70
2019-02-23T20:37:36.427Z,100813.98
2019-02-23T20:40:07.058Z,100821.67
2019-02-23T20:42:35.326Z,100823.72
2019-02-23T20:45:04.609Z,100829.48
2019-02-23T20:47:35.281Z,100827.52
2019-02-23T20:50:05.321Z,100825.84
2019-02-23T20:52:33.591Z,100820.60
2019-02-23T20:55:01.879Z,100828.30
2019-02-23T20:57:36.742Z,100826.69
2019-02-23T21:00:11.309Z,100830.05
2019-02-23T21:02:39.888Z,100830.89
2019-02-23T21:05:13.026Z,100825.00
2019-02-23T21:07:41.330Z,100822.41
2019-02-23T21:10:10.104Z,100836.22
2019-02-23T21:12:38.389Z,100840.99
2019-02-23T21:15:08.933Z,100840.59
2019-02-23T21:17:37.231Z,100840.75
2019-02-23T21:20:07.742Z,100838.86
2019-02-23T21:22:36.030Z,100843.98
2019-02-23T21:25:05.947Z,100839.23
2019-02-23T21:27:34.245Z,100835.64
2019-02-23T21:30:02.527Z,100827.46
2019-02-23T21:32:30.798Z,100835.16
2019-02-23T21:34:59.094Z,100827.66
2019-02-23T21:37:27.359Z,100820.72
2019-02-23T21:39:55.658Z,100812.83
2019-02-23T21:42:23.960Z,100812.95
2019-02-23T21:44:52.242Z,100807.45
2019-02-23T21:47:20.526Z,100808.37
2019-02-23T21:49:48.814Z,100809.79
2019-02-23T21:52:17.084Z,100820.97
2019-02-23T21:54:45.401Z,100821.11
2019-02-23T21:57:21.802Z,100836.59
2019-02-23T21:59:43.707Z,100828.30
2019-02-23T22:02:12.094Z,100838.09
2019-02-23T22:04:40.399Z,100838.09
2019-02-23T22:07:08.675Z,100844.36
2019-02-23T22:09:36.956Z,100838.44
2019-02-23T22:12:05.242Z,100849.47
2019-02-23T22:14:33.522Z,100844.55
2019-02-23T22:17:08.106Z,100840.28
2019-02-23T22:19:36.222Z,100847.80
2019-02-23T22:22:04.535Z,100852.89
2019-02-23T22:24:32.805Z,100857.47
2019-02-23T22:27:01.104Z,100847.21
2019-02-23T22:29:29.466Z,100851.29
2019-02-23T22:31:57.696Z,100853.05
2019-02-23T22:34:26.004Z,100851.59
2019-02-23T22:36:54.273Z,100846.48
2019-02-23T22:39:22.555Z,100836.72
2019-02-23T22:41:50.828Z,100839.42
2019-02-23T22:44:19.110Z,100839.89
2019-02-23T22:46:47.396Z,100838.09
2019-02-23T22:49:15.701Z,100835.57
2019-02-23T22:51:43.983Z,100832.45
2019-02-23T22:54:12.538Z,100813.72
2019-02-23T22:56:40.812Z,100809.12
2019-02-23T22:59:09.099Z,100806.20
2019-02-23T23:01:37.429Z,100795.91
2019-02-23T23:04:05.696Z,100798.48
2019-02-23T23:06:40.646Z,100805.66
2019-02-23T23:09:10.595Z,100810.13
2019-02-23T23:11:38.876Z,100815.32
2019-02-23T23:14:07.182Z,100816.07
2019-02-23T23:16:35.488Z,100821.47
2019-02-23T23:19:03.786Z,100817.34
2019-02-23T23:21:32.364Z,100824.42
2019-02-23T23:24:00.647Z,100824.30
2019-02-23T23:26:28.930Z,100818.56
2019-02-23T23:28:57.206Z,100819.86
2019-02-23T23:31:25.506Z,100811.51
2019-02-23T23:33:53.774Z,100814.41
2019-02-23T23:36:22.075Z,100816.82
2019-02-23T23:38:50.357Z,100816.97
2019-02-23T23:41:18.695Z,100813.13
2019-02-23T23:43:46.956Z,100809.28
2019-02-23T23:46:15.224Z,100812.30
2019-02-23T23:48:43.510Z,100808.41
2019-02-23T23:51:11.786Z,100808.59
2019-02-23T23:53:40.087Z,100806.09
2019-02-23T23:56:08.356Z,100806.36
2019-02-23T23:58:36.665Z,100803.17
